sensor_id;sensor_type;location;lat;lon;timestamp;temperature;humidity
24560;DHT22;12727;49.934;8.656;2023-02-03T00:01:47;7.40;99.90
24560;DHT22;12727;49.934;8.656;2023-02-03T00:04:13;7.50;99.90
24560;DHT22;12727;49.934;8.656;2023-02-03T00:06:39;7.50;99.90
24560;DHT22;12727;49.934;8.656;2023-02-03T00:09:04;7.50;99.90
24560;DHT22;12727;49.934;8.656;2023-02-03T00:11:30;7.50;99.90
24560;DHT22;12727;49.934;8.656;2023-02-03T00:13:56;7.40;99.90
24560;DHT22;12727;49.934;8.656;2023-02-03T00:16:22;7.40;99.90
24560;DHT22;12727;49.934;8.656;2023-02-03T00:18:47;7.30;99.90
24560;DHT22;12727;49.934;8.656;2023-02-03T00:21:13;7.40;99.90
24560;DHT22;12727;49.934;8.656;2023-02-03T00:23:40;7.40;99.90
24560;DHT22;12727;49.934;8.656;2023-02-03T00:26:10;7.50;99.90
24560;DHT22;12727;49.934;8.656;2023-02-03T00:28:36;7.50;99.90
24560;DHT22;12727;49.934;8.656;2023-02-03T00:31:02;7.50;99.90
24560;DHT22;12727;49.934;8.656;2023-02-03T00:33:27;7.50;99.90
24560;DHT22;12727;49.934;8.656;2023-02-03T00:35:53;7.40;99.90
24560;DHT22;12727;49.934;8.656;2023-02-03T00:38:19;7.40;99.90
24560;DHT22;12727;49.934;8.656;2023-02-03T00:40:53;7.40;99.90
24560;DHT22;12727;49.934;8.656;2023-02-03T00:43:20;7.40;99.90
24560;DHT22;12727;49.934;8.656;2023-02-03T00:45:46;7.40;99.90
24560;DHT22;12727;49.934;8.656;2023-02-03T00:48:12;7.40;99.90
24560;DHT22;12727;49.934;8.656;2023-02-03T00:50:38;7.50;99.90
24560;DHT22;12727;49.934;8.656;2023-02-03T00:53:04;7.50;99.90
24560;DHT22;12727;49.934;8.656;2023-02-03T00:55:29;7.40;99.90
24560;DHT22;12727;49.934;8.656;2023-02-03T00:57:55;7.40;99.90
24560;DHT22;12727;49.934;8.656;2023-02-03T01:00:20;7.50;99.90
24560;DHT22;12727;49.934;8.656;2023-02-03T01:02:46;7.50;99.90
24560;DHT22;12727;49.934;8.656;2023-02-03T01:05:11;7.50;99.90
24560;DHT22;12727;49.934;8.656;2023-02-03T01:07:37;7.50;99.90
24560;DHT22;12727;49.934;8.656;2023-02-03T01:10:03;7.50;99.90
24560;DHT22;12727;49.934;8.656;2023-02-03T01:12:30;7.40;99.90
24560;DHT22;12727;49.934;8.656;2023-02-03T01:14:56;7.40;99.90
24560;DHT22;12727;49.934;8.656;2023-02-03T01:17:21;7.30;99.90
24560;DHT22;12727;49.934;8.656;2023-02-03T01:19:47;7.20;99.90
24560;DHT22;12727;49.934;8.656;2023-02-03T01:22:14;7.20;99.90
24560;DHT22;12727;49.934;8.656;2023-02-03T01:24:39;7.30;99.90
24560;DHT22;12727;49.934;8.656;2023-02-03T01:27:05;7.30;99.90
24560;DHT22;12727;49.934;8.656;2023-02-03T01:29:30;7.40;99.90
24560;DHT22;12727;49.934;8.656;2023-02-03T01:31:56;7.40;99.90
24560;DHT22;12727;49.934;8.656;2023-02-03T01:34:21;7.40;99.90
24560;DHT22;12727;49.934;8.656;2023-02-03T01:36:47;7.40;99.90
24560;DHT22;12727;49.934;8.656;2023-02-03T01:39:13;7.40;99.90
24560;DHT22;12727;49.934;8.656;2023-02-03T01:41:39;7.50;99.90
24560;DHT22;12727;49.934;8.656;2023-02-03T01:47:01;7.50;99.90
24560;DHT22;12727;49.934;8.656;2023-02-03T01:49:34;7.60;99.90
24560;DHT22;12727;49.934;8.656;2023-02-03T01:52:01;7.60;99.90
24560;DHT22;12727;49.934;8.656;2023-02-03T01:54:31;7.50;99.90
24560;DHT22;12727;49.934;8.656;2023-02-03T01:57:06;7.50;99.90
24560;DHT22;12727;49.934;8.656;2023-02-03T01:59:35;7.50;99.90
24560;DHT22;12727;49.934;8.656;2023-02-03T02:02:02;7.50;99.90
24560;DHT22;12727;49.934;8.656;2023-02-03T02:04:33;7.50;99.90
24560;DHT22;12727;49.934;8.656;2023-02-03T02:07:01;7.50;99.90
24560;DHT22;12727;49.934;8.656;2023-02-03T02:09:27;7.40;99.90
24560;DHT22;12727;49.934;8.656;2023-02-03T02:11:53;7.40;99.90
24560;DHT22;12727;49.934;8.656;2023-02-03T02:14:19;7.40;99.90
24560;DHT22;12727;49.934;8.656;2023-02-03T02:16:58;7.40;99.90
24560;DHT22;12727;49.934;8.656;2023-02-03T02:19:48;7.40;99.90
24560;DHT22;12727;49.934;8.656;2023-02-03T02:22:32;7.40;99.90
24560;DHT22;12727;49.934;8.656;2023-02-03T02:28:57;7.40;99.90
24560;DHT22;12727;49.934;8.656;2023-02-03T02:32:02;7.40;99.90
24560;DHT22;12727;49.934;8.656;2023-02-03T02:34:07;7.40;99.90
24560;DHT22;12727;49.934;8.656;2023-02-03T02:40:22;7.40;99.90
24560;DHT22;12727;49.934;8.656;2023-02-03T02:43:05;7.50;99.90
24560;DHT22;12727;49.934;8.656;2023-02-03T02:48:08;7.50;99.90
24560;DHT22;12727;49.934;8.656;2023-02-03T02:50:39;7.50;99.90
24560;DHT22;12727;49.934;8.656;2023-02-03T02:53:06;7.50;99.90
24560;DHT22;12727;49.934;8.656;2023-02-03T02:55:33;7.40;99.90
24560;DHT22;12727;49.934;8.656;2023-02-03T02:58:06;7.40;99.90
24560;DHT22;12727;49.934;8.656;2023-02-03T03:00:34;7.50;99.90
24560;DHT22;12727;49.934;8.656;2023-02-03T03:03:13;7.50;99.90
24560;DHT22;12727;49.934;8.656;2023-02-03T03:05:40;7.50;99.90
24560;DHT22;12727;49.934;8.656;2023-02-03T03:08:08;7.60;99.90
24560;DHT22;12727;49.934;8.656;2023-02-03T03:10:35;7.50;99.90
24560;DHT22;12727;49.934;8.656;2023-02-03T03:13:05;7.50;99.90
24560;DHT22;12727;49.934;8.656;2023-02-03T03:15:33;7.50;99.90
24560;DHT22;12727;49.934;8.656;2023-02-03T03:20:50;7.40;99.90
24560;DHT22;12727;49.934;8.656;2023-02-03T03:23:41;7.30;99.90
24560;DHT22;12727;49.934;8.656;2023-02-03T03:26:13;7.30;99.90
24560;DHT22;12727;49.934;8.656;2023-02-03T03:28:50;7.20;99.90
24560;DHT22;12727;49.934;8.656;2023-02-03T03:31:18;7.20;99.90
24560;DHT22;12727;49.934;8.656;2023-02-03T03:33:44;7.20;99.90
24560;DHT22;12727;49.934;8.656;2023-02-03T03:38:43;7.20;99.90
24560;DHT22;12727;49.934;8.656;2023-02-03T03:41:37;7.20;99.90
24560;DHT22;12727;49.934;8.656;2023-02-03T03:44:02;7.20;99.90
24560;DHT22;12727;49.934;8.656;2023-02-03T03:46:35;7.20;99.90
24560;DHT22;12727;49.934;8.656;2023-02-03T03:49:04;7.20;99.90
24560;DHT22;12727;49.934;8.656;2023-02-03T03:51:36;7.20;99.90
24560;DHT22;12727;49.934;8.656;2023-02-03T03:54:07;7.30;99.90
24560;DHT22;12727;49.934;8.656;2023-02-03T03:56:57;7.40;99.90
24560;DHT22;12727;49.934;8.656;2023-02-03T03:59:30;7.40;99.90
24560;DHT22;12727;49.934;8.656;2023-02-03T04:01:58;7.50;99.90
24560;DHT22;12727;49.934;8.656;2023-02-03T04:04:29;7.50;99.90
24560;DHT22;12727;49.934;8.656;2023-02-03T04:06:56;7.60;99.90
24560;DHT22;12727;49.934;8.656;2023-02-03T04:09:21;7.60;99.90
24560;DHT22;12727;49.934;8.656;2023-02-03T04:11:47;7.60;99.90
24560;DHT22;12727;49.934;8.656;2023-02-03T04:14:34;7.60;99.90
24560;DHT22;12727;49.934;8.656;2023-02-03T04:17:00;7.60;99.90
24560;DHT22;12727;49.934;8.656;2023-02-03T04:19:26;7.70;99.90
24560;DHT22;12727;49.934;8.656;2023-02-03T04:21:52;7.70;99.90
24560;DHT22;12727;49.934;8.656;2023-02-03T04:24:17;7.60;99.90
24560;DHT22;12727;49.934;8.656;2023-02-03T04:26:43;7.70;99.90
24560;DHT22;12727;49.934;8.656;2023-02-03T04:29:09;7.70;99.90
24560;DHT22;12727;49.934;8.656;2023-02-03T04:31:34;7.70;99.90
24560;DHT22;12727;49.934;8.656;2023-02-03T04:34:00;7.70;99.90
24560;DHT22;12727;49.934;8.656;2023-02-03T04:36:26;7.70;99.90
24560;DHT22;12727;49.934;8.656;2023-02-03T04:38:51;7.70;99.90
24560;DHT22;12727;49.934;8.656;2023-02-03T04:41:17;7.70;99.90
24560;DHT22;12727;49.934;8.656;2023-02-03T04:43:42;7.70;99.90
24560;DHT22;12727;49.934;8.656;2023-02-03T04:46:08;7.70;99.90
24560;DHT22;12727;49.934;8.656;2023-02-03T04:48:34;7.70;99.90
24560;DHT22;12727;49.934;8.656;2023-02-03T04:51:05;7.70;99.90
24560;DHT22;12727;49.934;8.656;2023-02-03T04:53:31;7.80;99.90
24560;DHT22;12727;49.934;8.656;2023-02-03T04:55:57;7.80;99.90
24560;DHT22;12727;49.934;8.656;2023-02-03T04:58:23;7.90;99.90
24560;DHT22;12727;49.934;8.656;2023-02-03T05:00:48;7.90;99.90
24560;DHT22;12727;49.934;8.656;2023-02-03T05:03:14;7.80;99.90
24560;DHT22;12727;49.934;8.656;2023-02-03T05:05:39;7.90;99.90
24560;DHT22;12727;49.934;8.656;2023-02-03T05:08:05;7.90;99.90
24560;DHT22;12727;49.934;8.656;2023-02-03T05:10:31;7.90;99.90
24560;DHT22;12727;49.934;8.656;2023-02-03T05:12:56;7.90;99.90
24560;DHT22;12727;49.934;8.656;2023-02-03T05:15:22;7.90;99.90
24560;DHT22;12727;49.934;8.656;2023-02-03T05:17:47;7.80;99.90
24560;DHT22;12727;49.934;8.656;2023-02-03T05:20:15;7.80;99.90
24560;DHT22;12727;49.934;8.656;2023-02-03T05:22:41;7.80;99.90
24560;DHT22;12727;49.934;8.656;2023-02-03T05:25:07;7.80;99.90
24560;DHT22;12727;49.934;8.656;2023-02-03T05:27:33;7.90;99.90
24560;DHT22;12727;49.934;8.656;2023-02-03T05:29:58;7.90;99.90
24560;DHT22;12727;49.934;8.656;2023-02-03T05:32:24;7.90;99.90
24560;DHT22;12727;49.934;8.656;2023-02-03T05:34:50;7.90;99.90
24560;DHT22;12727;49.934;8.656;2023-02-03T05:37:15;7.80;99.90
24560;DHT22;12727;49.934;8.656;2023-02-03T05:39:41;7.80;99.90
24560;DHT22;12727;49.934;8.656;2023-02-03T05:42:06;7.80;99.90
24560;DHT22;12727;49.934;8.656;2023-02-03T05:44:32;7.90;99.90
24560;DHT22;12727;49.934;8.656;2023-02-03T05:46:58;7.90;99.90
24560;DHT22;12727;49.934;8.656;2023-02-03T05:49:24;7.90;99.90
24560;DHT22;12727;49.934;8.656;2023-02-03T05:51:51;7.90;99.90
24560;DHT22;12727;49.934;8.656;2023-02-03T05:54:17;7.80;99.90
24560;DHT22;12727;49.934;8.656;2023-02-03T05:56:43;7.80;99.90
24560;DHT22;12727;49.934;8.656;2023-02-03T05:59:09;7.70;99.90
24560;DHT22;12727;49.934;8.656;2023-02-03T06:01:35;7.80;99.90
24560;DHT22;12727;49.934;8.656;2023-02-03T06:04:01;7.70;99.90
24560;DHT22;12727;49.934;8.656;2023-02-03T06:06:28;7.70;99.90
24560;DHT22;12727;49.934;8.656;2023-02-03T06:08:59;7.70;99.90
24560;DHT22;12727;49.934;8.656;2023-02-03T06:11:25;7.60;99.90
24560;DHT22;12727;49.934;8.656;2023-02-03T06:13:50;7.60;99.90
24560;DHT22;12727;49.934;8.656;2023-02-03T06:16:16;7.60;99.90
24560;DHT22;12727;49.934;8.656;2023-02-03T06:18:41;7.60;99.90
24560;DHT22;12727;49.934;8.656;2023-02-03T06:21:07;7.60;99.90
24560;DHT22;12727;49.934;8.656;2023-02-03T06:23:33;7.60;99.90
24560;DHT22;12727;49.934;8.656;2023-02-03T06:25:58;7.60;99.90
24560;DHT22;12727;49.934;8.656;2023-02-03T06:28:25;7.60;99.90
24560;DHT22;12727;49.934;8.656;2023-02-03T06:30:51;7.60;99.90
24560;DHT22;12727;49.934;8.656;2023-02-03T06:33:18;7.50;99.90
24560;DHT22;12727;49.934;8.656;2023-02-03T06:35:43;7.50;99.90
24560;DHT22;12727;49.934;8.656;2023-02-03T06:38:09;7.50;99.90
24560;DHT22;12727;49.934;8.656;2023-02-03T06:40:34;7.60;99.90
24560;DHT22;12727;49.934;8.656;2023-02-03T06:43:00;7.50;99.90
24560;DHT22;12727;49.934;8.656;2023-02-03T06:45:25;7.60;99.90
24560;DHT22;12727;49.934;8.656;2023-02-03T06:47:51;7.60;99.90
24560;DHT22;12727;49.934;8.656;2023-02-03T06:50:16;7.60;99.90
24560;DHT22;12727;49.934;8.656;2023-02-03T06:52:43;7.70;99.90
24560;DHT22;12727;49.934;8.656;2023-02-03T06:55:09;7.70;99.90
24560;DHT22;12727;49.934;8.656;2023-02-03T06:57:35;7.80;99.90
24560;DHT22;12727;49.934;8.656;2023-02-03T07:00:07;7.70;99.90
24560;DHT22;12727;49.934;8.656;2023-02-03T07:02:33;7.70;99.90
24560;DHT22;12727;49.934;8.656;2023-02-03T07:04:58;7.80;99.90
24560;DHT22;12727;49.934;8.656;2023-02-03T07:07:24;7.80;99.90
24560;DHT22;12727;49.934;8.656;2023-02-03T07:09:49;7.80;99.90
24560;DHT22;12727;49.934;8.656;2023-02-03T07:12:15;7.80;99.90
24560;DHT22;12727;49.934;8.656;2023-02-03T07:14:40;7.80;99.90
24560;DHT22;12727;49.934;8.656;2023-02-03T07:17:06;7.90;99.90
24560;DHT22;12727;49.934;8.656;2023-02-03T07:19:32;7.90;99.90
24560;DHT22;12727;49.934;8.656;2023-02-03T07:21:57;7.90;99.90
24560;DHT22;12727;49.934;8.656;2023-02-03T07:24:23;7.90;99.90
24560;DHT22;12727;49.934;8.656;2023-02-03T07:26:48;7.90;99.90
24560;DHT22;12727;49.934;8.656;2023-02-03T07:29:14;7.90;99.90
24560;DHT22;12727;49.934;8.656;2023-02-03T07:31:39;7.90;99.90
24560;DHT22;12727;49.934;8.656;2023-02-03T07:34:05;8.00;99.90
24560;DHT22;12727;49.934;8.656;2023-02-03T07:36:31;8.00;99.90
24560;DHT22;12727;49.934;8.656;2023-02-03T07:38:57;7.90;99.90
24560;DHT22;12727;49.934;8.656;2023-02-03T07:41:23;7.90;99.90
24560;DHT22;12727;49.934;8.656;2023-02-03T07:43:48;7.80;99.90
24560;DHT22;12727;49.934;8.656;2023-02-03T07:46:14;7.80;99.90
24560;DHT22;12727;49.934;8.656;2023-02-03T07:48:40;7.80;99.90
24560;DHT22;12727;49.934;8.656;2023-02-03T07:51:05;7.80;99.90
24560;DHT22;12727;49.934;8.656;2023-02-03T07:53:31;7.80;99.90
24560;DHT22;12727;49.934;8.656;2023-02-03T07:56:00;7.80;99.90
24560;DHT22;12727;49.934;8.656;2023-02-03T07:58:27;7.90;99.90
24560;DHT22;12727;49.934;8.656;2023-02-03T08:00:54;7.80;99.90
24560;DHT22;12727;49.934;8.656;2023-02-03T08:03:20;7.80;99.90
24560;DHT22;12727;49.934;8.656;2023-02-03T08:05:46;7.90;99.90
24560;DHT22;12727;49.934;8.656;2023-02-03T08:08:11;7.90;99.90
24560;DHT22;12727;49.934;8.656;2023-02-03T08:10:37;8.00;99.90
24560;DHT22;12727;49.934;8.656;2023-02-03T08:13:03;8.00;99.90
24560;DHT22;12727;49.934;8.656;2023-02-03T08:15:28;8.00;99.90
24560;DHT22;12727;49.934;8.656;2023-02-03T08:17:54;8.00;99.90
24560;DHT22;12727;49.934;8.656;2023-02-03T08:20:20;8.00;99.90
24560;DHT22;12727;49.934;8.656;2023-02-03T08:22:46;8.10;99.90
24560;DHT22;12727;49.934;8.656;2023-02-03T08:25:11;8.10;99.90
24560;DHT22;12727;49.934;8.656;2023-02-03T08:27:37;8.20;99.90
24560;DHT22;12727;49.934;8.656;2023-02-03T08:30:04;8.10;99.90
24560;DHT22;12727;49.934;8.656;2023-02-03T08:32:31;8.20;99.90
24560;DHT22;12727;49.934;8.656;2023-02-03T08:34:57;8.20;99.90
24560;DHT22;12727;49.934;8.656;2023-02-03T08:37:23;8.20;99.90
24560;DHT22;12727;49.934;8.656;2023-02-03T08:39:49;8.20;99.90
24560;DHT22;12727;49.934;8.656;2023-02-03T08:42:15;8.30;99.90
24560;DHT22;12727;49.934;8.656;2023-02-03T08:44:40;8.30;99.90
24560;DHT22;12727;49.934;8.656;2023-02-03T08:47:09;8.40;99.90
24560;DHT22;12727;49.934;8.656;2023-02-03T08:49:35;8.40;99.90
24560;DHT22;12727;49.934;8.656;2023-02-03T08:52:04;8.40;99.90
24560;DHT22;12727;49.934;8.656;2023-02-03T08:54:30;8.50;99.90
24560;DHT22;12727;49.934;8.656;2023-02-03T08:56:56;8.50;99.90
24560;DHT22;12727;49.934;8.656;2023-02-03T08:59:22;8.50;99.90
24560;DHT22;12727;49.934;8.656;2023-02-03T09:01:48;8.50;99.90
24560;DHT22;12727;49.934;8.656;2023-02-03T09:04:16;8.60;99.90
24560;DHT22;12727;49.934;8.656;2023-02-03T09:06:44;8.60;99.90
24560;DHT22;12727;49.934;8.656;2023-02-03T09:09:12;8.60;99.90
24560;DHT22;12727;49.934;8.656;2023-02-03T09:11:40;8.70;99.90
24560;DHT22;12727;49.934;8.656;2023-02-03T09:14:06;8.70;99.90
24560;DHT22;12727;49.934;8.656;2023-02-03T09:16:32;8.80;99.90
24560;DHT22;12727;49.934;8.656;2023-02-03T09:18:57;8.80;99.90
24560;DHT22;12727;49.934;8.656;2023-02-03T09:21:23;8.80;99.90
24560;DHT22;12727;49.934;8.656;2023-02-03T09:23:49;8.80;99.90
24560;DHT22;12727;49.934;8.656;2023-02-03T09:26:15;8.80;99.90
24560;DHT22;12727;49.934;8.656;2023-02-03T09:28:40;8.80;99.90
24560;DHT22;12727;49.934;8.656;2023-02-03T09:31:09;8.80;99.90
24560;DHT22;12727;49.934;8.656;2023-02-03T09:33:37;8.80;99.90
24560;DHT22;12727;49.934;8.656;2023-02-03T09:36:03;8.90;99.90
24560;DHT22;12727;49.934;8.656;2023-02-03T09:38:30;8.90;99.90
24560;DHT22;12727;49.934;8.656;2023-02-03T09:44:04;8.80;99.90
24560;DHT22;12727;49.934;8.656;2023-02-03T09:46:41;8.80;99.90
24560;DHT22;12727;49.934;8.656;2023-02-03T09:49:20;8.80;99.90
24560;DHT22;12727;49.934;8.656;2023-02-03T09:52:02;8.80;99.90
24560;DHT22;12727;49.934;8.656;2023-02-03T09:57:14;8.80;99.90
24560;DHT22;12727;49.934;8.656;2023-02-03T09:59:42;8.80;99.90
24560;DHT22;12727;49.934;8.656;2023-02-03T10:08:01;9.00;99.90
24560;DHT22;12727;49.934;8.656;2023-02-03T10:19:19;8.80;99.90
24560;DHT22;12727;49.934;8.656;2023-02-03T10:21:50;8.80;99.90
24560;DHT22;12727;49.934;8.656;2023-02-03T10:24:21;8.90;99.90
24560;DHT22;12727;49.934;8.656;2023-02-03T10:26:51;8.90;99.90
24560;DHT22;12727;49.934;8.656;2023-02-03T10:29:29;8.90;99.90
24560;DHT22;12727;49.934;8.656;2023-02-03T10:31:57;9.00;99.90
24560;DHT22;12727;49.934;8.656;2023-02-03T10:34:23;9.10;99.90
24560;DHT22;12727;49.934;8.656;2023-02-03T10:39:44;9.10;99.90
24560;DHT22;12727;49.934;8.656;2023-02-03T10:42:11;9.20;99.90
24560;DHT22;12727;49.934;8.656;2023-02-03T10:44:46;9.20;99.90
24560;DHT22;12727;49.934;8.656;2023-02-03T10:47:33;9.10;99.90
24560;DHT22;12727;49.934;8.656;2023-02-03T10:50:06;9.10;99.90
24560;DHT22;12727;49.934;8.656;2023-02-03T10:52:35;9.20;99.90
24560;DHT22;12727;49.934;8.656;2023-02-03T10:55:05;9.20;99.90
24560;DHT22;12727;49.934;8.656;2023-02-03T10:57:35;9.20;99.90
24560;DHT22;12727;49.934;8.656;2023-02-03T11:00:28;9.20;99.90
24560;DHT22;12727;49.934;8.656;2023-02-03T11:05:37;9.10;99.90
24560;DHT22;12727;49.934;8.656;2023-02-03T11:08:02;9.10;99.90
24560;DHT22;12727;49.934;8.656;2023-02-03T11:10:30;9.10;99.90
24560;DHT22;12727;49.934;8.656;2023-02-03T11:13:19;9.10;99.90
24560;DHT22;12727;49.934;8.656;2023-02-03T11:18:41;9.20;99.90
24560;DHT22;12727;49.934;8.656;2023-02-03T11:21:16;9.20;99.90
24560;DHT22;12727;49.934;8.656;2023-02-03T11:23:52;9.20;99.90
24560;DHT22;12727;49.934;8.656;2023-02-03T11:26:21;9.30;99.90
24560;DHT22;12727;49.934;8.656;2023-02-03T11:28:50;9.40;99.90
24560;DHT22;12727;49.934;8.656;2023-02-03T11:31:20;9.60;99.90
24560;DHT22;12727;49.934;8.656;2023-02-03T11:33:48;9.60;99.90
24560;DHT22;12727;49.934;8.656;2023-02-03T11:36:14;9.70;99.90
24560;DHT22;12727;49.934;8.656;2023-02-03T11:38:41;9.70;99.90
24560;DHT22;12727;49.934;8.656;2023-02-03T11:41:19;9.80;99.90
24560;DHT22;12727;49.934;8.656;2023-02-03T11:43:45;9.90;99.90
24560;DHT22;12727;49.934;8.656;2023-02-03T11:46:11;9.90;99.90
24560;DHT22;12727;49.934;8.656;2023-02-03T11:49:03;10.00;99.90
24560;DHT22;12727;49.934;8.656;2023-02-03T11:51:54;10.00;99.90
24560;DHT22;12727;49.934;8.656;2023-02-03T11:54:37;10.10;99.90
24560;DHT22;12727;49.934;8.656;2023-02-03T11:59:48;10.20;99.90
24560;DHT22;12727;49.934;8.656;2023-02-03T12:05:25;10.10;99.90
24560;DHT22;12727;49.934;8.656;2023-02-03T12:13:57;10.10;99.90
24560;DHT22;12727;49.934;8.656;2023-02-03T12:16:46;10.10;99.90
24560;DHT22;12727;49.934;8.656;2023-02-03T12:22:55;10.00;99.90
24560;DHT22;12727;49.934;8.656;2023-02-03T12:28:27;10.00;99.90
24560;DHT22;12727;49.934;8.656;2023-02-03T12:31:03;10.10;99.90
24560;DHT22;12727;49.934;8.656;2023-02-03T12:33:41;10.10;99.90
24560;DHT22;12727;49.934;8.656;2023-02-03T12:36:12;10.30;99.90
24560;DHT22;12727;49.934;8.656;2023-02-03T12:38:59;10.20;99.90
24560;DHT22;12727;49.934;8.656;2023-02-03T12:41:37;10.30;99.90
24560;DHT22;12727;49.934;8.656;2023-02-03T12:44:11;10.40;99.90
24560;DHT22;12727;49.934;8.656;2023-02-03T12:46:55;10.40;99.90
24560;DHT22;12727;49.934;8.656;2023-02-03T12:49:46;10.30;99.90
24560;DHT22;12727;49.934;8.656;2023-02-03T12:52:24;10.20;99.90
24560;DHT22;12727;49.934;8.656;2023-02-03T12:55:06;10.10;99.90
24560;DHT22;12727;49.934;8.656;2023-02-03T12:57:40;10.00;99.90
24560;DHT22;12727;49.934;8.656;2023-02-03T13:00:18;10.00;99.90
24560;DHT22;12727;49.934;8.656;2023-02-03T13:08:21;9.90;99.90
24560;DHT22;12727;49.934;8.656;2023-02-03T13:11:10;9.90;99.90
24560;DHT22;12727;49.934;8.656;2023-02-03T13:13:51;9.90;99.90
24560;DHT22;12727;49.934;8.656;2023-02-03T13:16:22;9.80;99.90
24560;DHT22;12727;49.934;8.656;2023-02-03T13:18:53;9.60;99.90
24560;DHT22;12727;49.934;8.656;2023-02-03T13:21:20;9.60;99.90
24560;DHT22;12727;49.934;8.656;2023-02-03T13:23:48;9.50;99.90
24560;DHT22;12727;49.934;8.656;2023-02-03T13:26:40;9.50;99.90
24560;DHT22;12727;49.934;8.656;2023-02-03T13:40:19;9.30;99.90
24560;DHT22;12727;49.934;8.656;2023-02-03T13:42:52;9.30;99.90
24560;DHT22;12727;49.934;8.656;2023-02-03T13:45:32;9.20;99.90
24560;DHT22;12727;49.934;8.656;2023-02-03T13:48:20;9.30;99.90
24560;DHT22;12727;49.934;8.656;2023-02-03T13:50:49;9.20;99.90
24560;DHT22;12727;49.934;8.656;2023-02-03T13:53:23;9.20;99.90
24560;DHT22;12727;49.934;8.656;2023-02-03T13:56:01;9.20;99.90
24560;DHT22;12727;49.934;8.656;2023-02-03T13:58:30;9.20;99.90
24560;DHT22;12727;49.934;8.656;2023-02-03T14:00:58;9.10;99.90
24560;DHT22;12727;49.934;8.656;2023-02-03T14:05:54;9.10;99.90
24560;DHT22;12727;49.934;8.656;2023-02-03T14:16:36;8.90;99.90
24560;DHT22;12727;49.934;8.656;2023-02-03T14:19:02;8.90;99.90
24560;DHT22;12727;49.934;8.656;2023-02-03T14:21:44;8.90;99.90
24560;DHT22;12727;49.934;8.656;2023-02-03T14:24:11;8.80;99.90
24560;DHT22;12727;49.934;8.656;2023-02-03T14:29:08;8.70;99.90
24560;DHT22;12727;49.934;8.656;2023-02-03T14:31:59;8.60;99.90
24560;DHT22;12727;49.934;8.656;2023-02-03T14:36:55;8.70;99.90
24560;DHT22;12727;49.934;8.656;2023-02-03T14:39:42;8.70;99.90
24560;DHT22;12727;49.934;8.656;2023-02-03T14:48:09;8.60;99.90
24560;DHT22;12727;49.934;8.656;2023-02-03T14:53:43;8.60;99.90
24560;DHT22;12727;49.934;8.656;2023-02-03T14:59:00;8.60;99.90
24560;DHT22;12727;49.934;8.656;2023-02-03T15:06:42;8.50;99.90
24560;DHT22;12727;49.934;8.656;2023-02-03T15:09:25;8.50;99.90
24560;DHT22;12727;49.934;8.656;2023-02-03T15:11:52;8.50;99.90
24560;DHT22;12727;49.934;8.656;2023-02-03T15:16:45;8.40;99.90
24560;DHT22;12727;49.934;8.656;2023-02-03T15:19:18;8.40;99.90
24560;DHT22;12727;49.934;8.656;2023-02-03T15:21:45;8.50;99.90
24560;DHT22;12727;49.934;8.656;2023-02-03T15:24:16;8.50;99.90
24560;DHT22;12727;49.934;8.656;2023-02-03T15:26:49;8.50;99.90
24560;DHT22;12727;49.934;8.656;2023-02-03T15:29:28;8.60;99.90
24560;DHT22;12727;49.934;8.656;2023-02-03T15:32:14;8.50;99.90
24560;DHT22;12727;49.934;8.656;2023-02-03T15:37:16;8.60;99.90
24560;DHT22;12727;49.934;8.656;2023-02-03T15:42:55;8.60;99.90
24560;DHT22;12727;49.934;8.656;2023-02-03T15:45:45;8.60;99.90
24560;DHT22;12727;49.934;8.656;2023-02-03T15:51:07;8.70;99.90
24560;DHT22;12727;49.934;8.656;2023-02-03T15:56:21;8.60;99.90
24560;DHT22;12727;49.934;8.656;2023-02-03T15:58:48;8.60;99.90
24560;DHT22;12727;49.934;8.656;2023-02-03T16:01:14;8.60;99.90
24560;DHT22;12727;49.934;8.656;2023-02-03T16:03:46;8.60;99.90
24560;DHT22;12727;49.934;8.656;2023-02-03T16:06:22;8.70;99.90
24560;DHT22;12727;49.934;8.656;2023-02-03T16:08:49;8.70;99.90
24560;DHT22;12727;49.934;8.656;2023-02-03T16:11:36;8.60;99.90
24560;DHT22;12727;49.934;8.656;2023-02-03T16:14:10;8.70;99.90
24560;DHT22;12727;49.934;8.656;2023-02-03T16:16:48;8.60;99.90
24560;DHT22;12727;49.934;8.656;2023-02-03T16:19:22;8.60;99.90
24560;DHT22;12727;49.934;8.656;2023-02-03T16:24:38;8.60;99.90
24560;DHT22;12727;49.934;8.656;2023-02-03T16:29:53;8.60;99.90
24560;DHT22;12727;49.934;8.656;2023-02-03T16:32:37;8.70;99.90
24560;DHT22;12727;49.934;8.656;2023-02-03T16:35:22;8.60;99.90
24560;DHT22;12727;49.934;8.656;2023-02-03T16:38:14;8.60;99.90
24560;DHT22;12727;49.934;8.656;2023-02-03T16:40:59;8.50;99.90
24560;DHT22;12727;49.934;8.656;2023-02-03T16:43:44;8.50;99.90
24560;DHT22;12727;49.934;8.656;2023-02-03T16:46:28;8.40;99.90
24560;DHT22;12727;49.934;8.656;2023-02-03T16:49:12;8.30;99.90
24560;DHT22;12727;49.934;8.656;2023-02-03T16:51:57;8.30;99.90
24560;DHT22;12727;49.934;8.656;2023-02-03T16:54:22;8.30;99.90
24560;DHT22;12727;49.934;8.656;2023-02-03T16:56:49;8.20;99.90
24560;DHT22;12727;49.934;8.656;2023-02-03T16:59:16;8.20;99.90
24560;DHT22;12727;49.934;8.656;2023-02-03T17:01:41;8.20;99.90
24560;DHT22;12727;49.934;8.656;2023-02-03T17:04:07;8.20;99.90
24560;DHT22;12727;49.934;8.656;2023-02-03T17:06:38;8.10;99.90
24560;DHT22;12727;49.934;8.656;2023-02-03T17:09:04;8.10;99.90
24560;DHT22;12727;49.934;8.656;2023-02-03T17:11:30;8.10;99.90
24560;DHT22;12727;49.934;8.656;2023-02-03T17:13:56;8.10;99.90
24560;DHT22;12727;49.934;8.656;2023-02-03T17:16:24;8.10;99.90
24560;DHT22;12727;49.934;8.656;2023-02-03T17:18:50;8.10;99.90
24560;DHT22;12727;49.934;8.656;2023-02-03T17:21:25;8.20;99.90
24560;DHT22;12727;49.934;8.656;2023-02-03T17:23:51;8.20;99.90
24560;DHT22;12727;49.934;8.656;2023-02-03T17:26:17;8.20;99.90
24560;DHT22;12727;49.934;8.656;2023-02-03T17:28:43;8.20;99.90
24560;DHT22;12727;49.934;8.656;2023-02-03T17:31:15;8.20;99.90
24560;DHT22;12727;49.934;8.656;2023-02-03T17:33:41;8.20;99.90
24560;DHT22;12727;49.934;8.656;2023-02-03T17:36:11;8.20;99.90
24560;DHT22;12727;49.934;8.656;2023-02-03T17:38:40;8.20;99.90
24560;DHT22;12727;49.934;8.656;2023-02-03T17:41:15;8.30;99.90
24560;DHT22;12727;49.934;8.656;2023-02-03T17:43:40;8.30;99.90
24560;DHT22;12727;49.934;8.656;2023-02-03T17:46:08;8.30;99.90
24560;DHT22;12727;49.934;8.656;2023-02-03T17:48:34;8.40;99.90
24560;DHT22;12727;49.934;8.656;2023-02-03T17:51:05;8.40;99.90
24560;DHT22;12727;49.934;8.656;2023-02-03T17:53:31;8.50;99.90
24560;DHT22;12727;49.934;8.656;2023-02-03T17:55:57;8.50;99.90
24560;DHT22;12727;49.934;8.656;2023-02-03T17:58:23;8.50;99.90
24560;DHT22;12727;49.934;8.656;2023-02-03T18:00:48;8.50;99.90
24560;DHT22;12727;49.934;8.656;2023-02-03T18:03:14;8.50;99.90
24560;DHT22;12727;49.934;8.656;2023-02-03T18:05:49;8.50;99.90
24560;DHT22;12727;49.934;8.656;2023-02-03T18:08:14;8.40;99.90
24560;DHT22;12727;49.934;8.656;2023-02-03T18:10:40;8.40;99.90
24560;DHT22;12727;49.934;8.656;2023-02-03T18:13:05;8.40;99.90
24560;DHT22;12727;49.934;8.656;2023-02-03T18:15:31;8.40;99.90